UM462 / Z-WPF 7700 Squawk Report (1st of July, 2020)

Aircraft B762 Reg No. Z-WPF Age 29 years old
Model 767 Jet engines 2 First flight 27-09-90
Registered 09-14 Rollout N/A Delivered 26-10-90
Construction No. 24867 Line No. 0333 Series 2N0(ER)
ADSHEX 00412D Airline name Air Zimbabwe Owner N/A
Airfield based Harare-Manyame~ ~Z First tracked N/A

Flight history for Z-WPF

Route Flight No Date Playback
O. R. Tambo International Airport (JNB) - Robert Gabriel Mugabe International (HRE) UM462 2020-07-28 04:08:00
???? N/A 2020-07-27 07:10:00
O. R. Tambo International Airport (JNB) - Robert Gabriel Mugabe International (HRE) UM462 2020-07-26 22:29:00
???? UM466 2020-07-26 16:42:00
O. R. Tambo International Airport (JNB) - Robert Gabriel Mugabe International (HRE) UM462 2020-07-25 23:15:00
O. R. Tambo International Airport (JNB) - Robert Gabriel Mugabe International (HRE) UM462 2020-07-01 08:42:00
O. R. Tambo International Airport (JNB) - Robert Gabriel Mugabe International (HRE) UM462 2020-06-28 04:13:00
???? UM463 2020-06-26 10:10:00
???? UM463 2020-06-25 15:15:00
???? N/A 2020-06-14 06:07:00
???? N/A 2020-06-13 11:55:00
???? N/A 2020-05-31 14:39:00
???? N/A 2020-05-30 23:56:00
???? N/A 2020-04-19 23:37:00
???? N/A 2020-04-18 21:36:00
O. R. Tambo International Airport (JNB) - Robert Gabriel Mugabe International (HRE) UM462 2020-03-25 17:57:00
Robert Gabriel Mugabe International (HRE) - O. R. Tambo International Airport (JNB) UM467 2020-03-25 17:00:00
???? N/A 2020-03-25 09:58:00
???? N/A 2020-03-20 07:37:00
O. R. Tambo International Airport (JNB) - Robert Gabriel Mugabe International (HRE) UM462 2020-03-18 17:21:00
Time Lat Lon Altitude Heading Speed Vertical Rate
2020-07-01 08:41:13 GMT 13.666655 100.743423 0 8 8 0
2020-07-01 08:41:02 GMT 13.666306 100.743599 0 8 9 0
2020-07-01 08:40:55 GMT 13.666131 100.743942 0 8 10 0
2020-07-01 08:40:43 GMT 13.665791 100.744286 0 8 11 0
2020-07-01 08:40:33 GMT 13.665276 100.744286 0 8 13 0
2020-07-01 08:40:23 GMT 13.664595 100.744293 0 8 15 0
2020-07-01 08:40:12 GMT 13.663902 100.744118 0 8 15 0
2020-07-01 08:40:02 GMT 13.663044 100.744118 0 8 15 0
2020-07-01 08:39:49 GMT 13.662360 100.743774 0 8 11 0
2020-07-01 08:39:34 GMT 13.662186 100.743088 0 8 10 0
2020-07-01 08:39:30 GMT 13.662011 100.742920 0 8 11 0
2020-07-01 08:39:19 GMT 13.662011 100.742401 0 8 11 0
2020-07-01 08:39:08 GMT 13.661848 100.741882 0 8 11 0
2020-07-01 08:38:58 GMT 13.661671 100.741371 0 8 15 0
2020-07-01 08:38:47 GMT 13.660812 100.741196 0 8 18 0
2020-07-01 08:38:37 GMT 13.659951 100.741028 0 8 19 0
2020-07-01 08:38:26 GMT 13.659096 100.740852 0 8 20 0
2020-07-01 08:38:16 GMT 13.658237 100.740685 0 8 19 0
2020-07-01 08:38:05 GMT 13.657205 100.740509 0 8 19 0
2020-07-01 08:37:55 GMT 13.656355 100.740341 0 8 19 0
2020-07-01 08:37:44 GMT 13.655319 100.740166 0 8 21 0
2020-07-01 08:37:33 GMT 13.654295 100.739990 0 8 21 0
2020-07-01 08:37:23 GMT 13.653259 100.739822 0 8 21 0
2020-07-01 08:37:12 GMT 13.652235 100.739655 0 8 21 0
2020-07-01 08:37:01 GMT 13.651199 100.739487 0 11 21 0
2020-07-01 08:36:51 GMT 13.650175 100.739304 0 8 22 0
2020-07-01 08:36:40 GMT 13.649139 100.739136 0 11 23 0
2020-07-01 08:36:29 GMT 13.648115 100.738968 0 8 22 0
2020-07-01 08:36:19 GMT 13.647079 100.738800 0 196 20 0
2020-07-01 08:36:08 GMT 13.646218 100.738617 0 196 19 0
2020-07-01 08:35:58 GMT 13.645369 100.738449 0 196 18 0
2020-07-01 08:35:47 GMT 13.644505 100.738449 0 196 16 0
2020-07-01 08:35:36 GMT 13.643818 100.738281 0 196 15 0
2020-07-01 08:35:26 GMT 13.643131 100.738106 0 196 15 0
2020-07-01 08:35:15 GMT 13.642273 100.738106 0 196 15 0
2020-07-01 08:35:05 GMT 13.641586 100.737938 0 196 16 0
2020-07-01 08:34:54 GMT 13.640900 100.737762 0 196 14 0
2020-07-01 08:34:43 GMT 13.640556 100.737419 0 196 9 0
2020-07-01 08:34:33 GMT 13.640562 100.736908 0 196 10 0
2020-07-01 08:34:22 GMT 13.640556 100.736389 0 196 8 0
2020-07-01 08:34:11 GMT 13.640900 100.736221 0 196 8 0
2020-07-01 08:34:01 GMT 13.641415 100.736389 0 196 14 0
2020-07-01 08:33:51 GMT 13.642098 100.736740 0 196 16 0
2020-07-01 08:33:40 GMT 13.642785 100.736908 0 196 17 0
2020-07-01 08:33:29 GMT 13.643646 100.737251 0 196 18 0
2020-07-01 08:33:19 GMT 13.644333 100.737595 0 196 18 0
2020-07-01 08:33:08 GMT 13.645363 100.737762 0 196 20 0
2020-07-01 08:32:57 GMT 13.646393 100.738106 0 196 24 0
2020-07-01 08:32:47 GMT 13.647423 100.738449 0 196 28 0
2020-07-01 08:32:36 GMT 13.649651 100.739136 0 194 69 0
2020-07-01 08:32:26 GMT 13.653946 100.740341 0 194 110 0
2020-07-01 08:32:13 GMT 13.661327 100.742401 0 194 155 0
2020-07-01 08:32:01 GMT 13.669922 100.744629 325 196 163 -384
2020-07-01 08:31:57 GMT 13.673696 100.745644 400 195 166 -640
2020-07-01 08:31:53 GMT 13.679535 100.747185 475 195 166 -704
2020-07-01 08:31:49 GMT 13.679535 100.747185 500 195 166 -704
2020-07-01 08:31:41 GMT 13.688461 100.749603 650 196 166 -832
2020-07-01 08:31:31 GMT 13.693954 100.750977 725 194 168 -768
2020-07-01 08:31:28 GMT 13.695296 100.751328 775 194 170 -960
2020-07-01 08:31:20 GMT 13.701674 100.753204 925 196 170 -960
2020-07-01 08:31:17 GMT 13.703210 100.753540 950 196 171 -768
2020-07-01 08:31:11 GMT 13.708008 100.754906 1,075 195 170 -896
2020-07-01 08:31:08 GMT 13.710938 100.755615 1,100 196 171 -960
2020-07-01 08:30:59 GMT 13.717300 100.757652 1,200 199 167 -832
2020-07-01 08:30:56 GMT 13.718991 100.758171 1,250 200 167 -768
2020-07-01 08:30:48 GMT 13.725369 100.760574 1,350 201 164 -896
2020-07-01 08:30:45 GMT 13.726913 100.761253 1,375 200 163 -768
2020-07-01 08:30:40 GMT 13.731537 100.762627 1,475 196 161 -960
2020-07-01 08:30:35 GMT 13.735471 100.763519 1,550 190 158 -832
2020-07-01 08:30:27 GMT 13.740784 100.764000 1,675 177 158 -768
2020-07-01 08:30:24 GMT 13.743210 100.763855 1,700 176 158 -704
2020-07-01 08:30:19 GMT 13.746964 100.763474 1,775 174 158 -704
2020-07-01 08:30:16 GMT 13.748886 100.763474 1,800 182 158 -896
2020-07-01 08:30:13 GMT 13.751083 100.763664 1,850 189 157 -896
2020-07-01 08:30:06 GMT 13.756093 100.765205 1,925 206 160 -768
2020-07-01 08:30:02 GMT 13.758316 100.766411 1,975 210 164 -896
2020-07-01 08:29:55 GMT 13.762939 100.768967 2,050 205 170 -896
2020-07-01 08:29:52 GMT 13.767426 100.770340 2,150 197 177 -896
2020-07-01 08:29:47 GMT 13.769640 100.771034 2,175 196 180 -640
2020-07-01 08:29:44 GMT 13.772061 100.771759 2,225 196 184 -384
2020-07-01 08:29:39 GMT 13.777042 100.773109 2,225 195 196 -192
2020-07-01 08:29:36 GMT 13.778392 100.773636 2,225 195 195 -192
2020-07-01 08:29:33 GMT 13.780952 100.774117 2,250 195 197 -256
2020-07-01 08:29:28 GMT 13.787516 100.776047 2,275 195 204 0
2020-07-01 08:29:24 GMT 13.790076 100.776527 2,250 195 205 64
2020-07-01 08:29:16 GMT 13.797638 100.778580 2,250 195 205 -64
2020-07-01 08:29:13 GMT 13.799666 100.779129 2,250 194 205 128
2020-07-01 08:29:05 GMT 13.809628 100.781685 2,250 194 206 -64
2020-07-01 08:28:55 GMT 13.817542 100.783417 2,275 194 206 -192
2020-07-01 08:28:52 GMT 13.819244 100.783936 2,275 193 205 -64
2020-07-01 08:28:47 GMT 13.823873 100.784767 2,275 191 204 128
2020-07-01 08:28:42 GMT 13.829041 100.785637 2,250 185 206 64
2020-07-01 08:28:36 GMT 13.834030 100.785637 2,250 173 208 -128
2020-07-01 08:28:33 GMT 13.837463 100.784973 2,250 164 208 0
2020-07-01 08:28:27 GMT 13.843984 100.783081 2,250 160 207 0
2020-07-01 08:28:21 GMT 13.848953 100.781189 2,250 160 207 64
2020-07-01 08:28:15 GMT 13.853760 100.779465 2,250 160 207 -128
2020-07-01 08:28:10 GMT 13.858368 100.777733 2,250 160 205 -64
2020-07-01 08:28:06 GMT 13.862000 100.776382 2,250 161 204 192
2020-07-01 08:28:00 GMT 13.867819 100.774506 2,250 161 205 -64
2020-07-01 08:27:54 GMT 13.872101 100.772911 2,250 160 205 0
2020-07-01 08:27:51 GMT 13.875549 100.771713 2,250 159 204 -128
2020-07-01 08:27:48 GMT 13.877426 100.771049 2,250 159 204 -128
2020-07-01 08:27:44 GMT 13.881546 100.769348 2,250 159 203 -64
2020-07-01 08:27:39 GMT 13.886719 100.767418 2,275 159 203 -64
2020-07-01 08:27:33 GMT 13.891327 100.765732 2,275 161 204 -64
2020-07-01 08:27:28 GMT 13.896149 100.764000 2,250 160 202 64
2020-07-01 08:27:18 GMT 13.905579 100.760727 2,250 160 207 -128
2020-07-01 08:27:11 GMT 13.912125 100.758507 2,275 160 210 64
2020-07-01 08:27:07 GMT 13.915375 100.757317 2,250 160 212 0
2020-07-01 08:26:59 GMT 13.923123 100.754410 2,250 159 217 64
2020-07-01 08:26:56 GMT 13.925491 100.753532 2,250 158 217 64
2020-07-01 08:26:46 GMT 13.935104 100.749603 2,275 156 221 0
2020-07-01 08:26:41 GMT 13.938904 100.747894 2,250 155 223 64
2020-07-01 08:26:38 GMT 13.943024 100.745811 2,250 155 225 -64
2020-07-01 08:26:35 GMT 13.945267 100.744774 2,250 155 225 -64
2020-07-01 08:26:25 GMT 13.955383 100.740128 2,250 156 231 64
2020-07-01 08:26:14 GMT 13.965858 100.735184 2,300 153 237 -768
2020-07-01 08:26:06 GMT 13.976844 100.729164 2,500 149 238 -1152
2020-07-01 08:25:55 GMT 13.984059 100.724678 2,650 150 238 -832
2020-07-01 08:25:52 GMT 13.986969 100.723175 2,675 151 238 -960
2020-07-01 08:25:42 GMT 14.004822 100.714752 3,150 160 247 -960
2020-07-01 08:25:35 GMT 14.008593 100.713211 3,000 158 242 -1152
2020-07-01 08:25:31 GMT 14.008593 100.713211 3,050 159 245 -960
2020-07-01 08:25:24 GMT 14.016678 100.710442 3,175 162 250 -1088
2020-07-01 08:25:19 GMT 14.028488 100.706841 3,450 165 261 -1728
2020-07-01 08:25:13 GMT 14.028488 100.706841 3,375 164 259 -1088
2020-07-01 08:25:10 GMT 14.032986 100.705650 3,450 165 260 -1600
2020-07-01 08:25:07 GMT 14.035034 100.704948 3,500 165 261 -1856
2020-07-01 08:25:03 GMT 14.041365 100.703430 3,675 165 261 -1984
2020-07-01 08:25:00 GMT 14.043786 100.702705 3,800 166 263 -2048
2020-07-01 08:24:57 GMT 14.046341 100.702202 3,800 166 263 -2048
2020-07-01 08:24:52 GMT 14.058701 100.698792 4,125 164 265 -2304
2020-07-01 08:24:48 GMT 14.058701 100.698792 4,200 164 265 -2112
2020-07-01 08:24:41 GMT 14.065933 100.696709 4,400 162 268 -1728
2020-07-01 08:24:37 GMT 14.070740 100.695190 4,550 161 270 -1728
2020-07-01 08:24:31 GMT 14.078467 100.692253 4,700 157 274 -1856
2020-07-01 08:24:27 GMT 14.084793 100.689316 4,875 154 277 -1984
2020-07-01 08:24:21 GMT 14.088913 100.687096 5,025 151 280 -1920
2020-07-01 08:24:18 GMT 14.093411 100.684685 5,100 150 281 -1856
2020-07-01 08:24:15 GMT 14.097321 100.682274 5,200 148 282 -1792
2020-07-01 08:24:10 GMT 14.102302 100.679192 5,325 146 284 -1600
2020-07-01 08:24:07 GMT 14.105255 100.677147 5,400 144 286 -1408
2020-07-01 08:24:01 GMT 14.111938 100.671844 5,525 140 290 -1088
2020-07-01 08:23:57 GMT 14.116562 100.667870 5,600 137 293 -960
2020-07-01 08:23:52 GMT 14.121389 100.662903 5,675 135 296 -768
2020-07-01 08:23:49 GMT 14.124298 100.659813 5,700 132 299 -640
2020-07-01 08:23:46 GMT 14.126696 100.657074 5,750 130 301 -640
2020-07-01 08:23:43 GMT 14.129954 100.653122 5,775 128 302 -704
2020-07-01 08:23:40 GMT 14.131851 100.650536 5,800 128 302 -832
2020-07-01 08:23:35 GMT 14.136984 100.644020 5,900 128 304 -960
2020-07-01 08:23:32 GMT 14.139587 100.640587 5,950 128 303 -1024
2020-07-01 08:23:28 GMT 14.145905 100.632538 6,075 128 304 -960
2020-07-01 08:23:24 GMT 14.149506 100.627731 6,300 128 304 -960
2020-07-01 08:23:20 GMT 14.149506 100.627731 6,150 128 303 -960
2020-07-01 08:23:17 GMT 14.152634 100.623779 6,225 128 303 -1024
2020-07-01 08:23:13 GMT 14.156582 100.618622 6,300 128 302 -1472
2020-07-01 08:23:09 GMT 14.158956 100.615540 6,375 128 302 -1472
2020-07-01 08:23:06 GMT 14.164124 100.608818 6,525 128 302 -1408
2020-07-01 08:22:59 GMT 14.168406 100.603348 6,625 128 300 -1472
2020-07-01 08:22:56 GMT 14.170990 100.599915 6,700 129 299 -1472
2020-07-01 08:22:53 GMT 14.173387 100.597130 6,750 129 298 -1536
2020-07-01 08:22:47 GMT 14.178694 100.590485 6,900 130 296 -1472
2020-07-01 08:22:42 GMT 14.182325 100.586143 7,000 131 296 -1280
2020-07-01 08:22:38 GMT 14.186783 100.581017 7,075 132 295 -1024
2020-07-01 08:22:35 GMT 14.188660 100.578979 7,125 133 295 -896
2020-07-01 08:22:32 GMT 14.192093 100.575195 7,175 133 297 -448
2020-07-01 08:22:27 GMT 14.196579 100.570366 7,225 132 298 -320
2020-07-01 08:22:24 GMT 14.199829 100.566772 7,250 132 298 -256
2020-07-01 08:22:21 GMT 14.202209 100.564018 7,250 131 300 -128
2020-07-01 08:22:17 GMT 14.206329 100.559380 7,250 131 301 -128
2020-07-01 08:22:13 GMT 14.209946 100.554924 7,275 130 301 -64
2020-07-01 08:22:10 GMT 14.212189 100.552368 7,275 130 300 0
2020-07-01 08:22:07 GMT 14.215983 100.547890 7,250 131 299 0
2020-07-01 08:22:04 GMT 14.218171 100.545334 7,275 131 299 -64
2020-07-01 08:22:00 GMT 14.221802 100.541046 7,275 131 297 -64
2020-07-01 08:21:56 GMT 14.225572 100.536705 7,275 131 296 0
2020-07-01 08:21:52 GMT 14.228989 100.532761 7,275 131 294 0
2020-07-01 08:21:49 GMT 14.231415 100.529877 7,275 131 294 -64
2020-07-01 08:21:46 GMT 14.234836 100.525719 7,275 131 293 0
2020-07-01 08:21:41 GMT 14.241531 100.518181 7,275 131 291 0
2020-07-01 08:21:38 GMT 14.241531 100.518181 7,275 131 291 0
2020-07-01 08:21:35 GMT 14.244286 100.514931 7,275 131 289 -64
2020-07-01 08:21:31 GMT 14.248398 100.510315 7,275 131 288 -64
2020-07-01 08:21:28 GMT 14.250137 100.508232 7,275 131 287 0
2020-07-01 08:21:24 GMT 14.253550 100.504280 7,275 131 286 -64
2020-07-01 08:21:21 GMT 14.257141 100.499992 7,275 131 286 -64
2020-07-01 08:21:18 GMT 14.259928 100.497101 7,275 131 286 0
2020-07-01 08:21:15 GMT 14.262675 100.493820 7,275 131 284 0
2020-07-01 08:21:10 GMT 14.267283 100.488472 7,275 131 284 0
2020-07-01 08:21:07 GMT 14.269006 100.486450 7,275 124 281 0
2020-07-01 08:21:04 GMT 14.271561 100.483513 7,275 131 283 0
2020-07-01 08:21:00 GMT 14.275681 100.478539 7,250 128 282 0
2020-07-01 08:20:57 GMT 14.277420 100.476456 7,275 127 283 -64
2020-07-01 08:20:54 GMT 14.280830 100.471992 7,275 126 283 -64
2020-07-01 08:20:46 GMT 14.285843 100.464096 7,275 122 282 0
2020-07-01 08:20:43 GMT 14.288046 100.460670 7,275 123 282 0
2020-07-01 08:20:37 GMT 14.293213 100.453300 7,275 127 281 64
2020-07-01 08:20:33 GMT 14.296146 100.449348 7,275 128 281 0
2020-07-01 08:20:26 GMT 14.303329 100.440277 7,300 129 293 -256
2020-07-01 08:20:22 GMT 14.305069 100.438004 7,325 129 295 -320
2020-07-01 08:20:17 GMT 14.309692 100.432190 7,375 129 300 -640
2020-07-01 08:20:14 GMT 14.312759 100.428391 7,425 129 304 -1088
2020-07-01 08:20:11 GMT 14.314133 100.426544 7,475 129 305 -1280
2020-07-01 08:20:05 GMT 14.320313 100.418777 7,650 128 307 -2048
2020-07-01 08:20:02 GMT 14.323239 100.414848 7,800 127 307 -2176
2020-07-01 08:19:54 GMT 14.329617 100.406464 8,050 127 308 -2112
2020-07-01 08:19:50 GMT 14.332689 100.402321 8,175 127 309 -2176
2020-07-01 08:19:44 GMT 14.338852 100.394058 8,450 128 310 -2304
2020-07-01 08:19:40 GMT 14.341953 100.390129 8,550 128 310 -2432
2020-07-01 08:19:34 GMT 14.348145 100.382416 8,850 130 308 -2496
2020-07-01 08:19:30 GMT 14.351217 100.378799 8,975 130 307 -2496
2020-07-01 08:19:23 GMT 14.358619 100.370033 9,200 131 307 -2432
2020-07-01 08:19:20 GMT 14.360853 100.367287 9,375 130 307 -2112
2020-07-01 08:19:15 GMT 14.366318 100.360771 9,575 130 309 -1664
2020-07-01 08:19:10 GMT 14.370955 100.355095 9,700 129 310 -1408
2020-07-01 08:19:02 GMT 14.377670 100.346519 9,850 128 312 -1024
2020-07-01 08:18:59 GMT 14.379893 100.343437 9,875 128 313 -960
2020-07-01 08:18:54 GMT 14.385386 100.336403 9,975 128 314 -896
2020-07-01 08:18:48 GMT 14.390042 100.330376 10,050 128 315 -896
2020-07-01 08:18:41 GMT 14.396896 100.321655 10,150 130 316 -832
2020-07-01 08:18:37 GMT 14.399643 100.318527 10,175 131 317 -768
2020-07-01 08:18:33 GMT 14.403774 100.313751 10,225 132 319 -384
2020-07-01 08:18:30 GMT 14.407196 100.309959 10,225 132 319 -384
2020-07-01 08:18:26 GMT 14.410618 100.306190 10,250 132 323 0
2020-07-01 08:18:20 GMT 14.417833 100.297752 10,250 130 329 0
2020-07-01 08:18:17 GMT 14.422302 100.292107 10,250 128 333 -64
2020-07-01 08:18:12 GMT 14.425887 100.287300 10,250 126 335 -64
2020-07-01 08:18:09 GMT 14.427795 100.284744 10,250 126 335 -64
2020-07-01 08:18:05 GMT 14.432078 100.278526 10,250 124 336 0
2020-07-01 08:18:01 GMT 14.435532 100.273399 10,250 123 335 0
2020-07-01 08:17:57 GMT 14.438456 100.268944 10,250 123 335 0
2020-07-01 08:17:54 GMT 14.441528 100.263977 10,250 121 336 0
2020-07-01 08:17:48 GMT 14.445831 100.256592 10,250 120 336 0
2020-07-01 08:17:43 GMT 14.449768 100.249390 10,250 119 336 0
2020-07-01 08:17:38 GMT 14.453865 100.241814 10,250 119 336 0
2020-07-01 08:17:34 GMT 14.455948 100.238213 10,250 119 335 0
2020-07-01 08:17:30 GMT 14.459564 100.231537 10,250 119 335 0
2020-07-01 08:17:27 GMT 14.462104 100.226730 10,250 119 335 0
2020-07-01 08:17:22 GMT 14.466248 100.219177 10,250 119 335 0
2020-07-01 08:17:18 GMT 14.468808 100.214348 10,250 119 335 0
2020-07-01 08:17:14 GMT 14.471375 100.209709 10,250 118 334 0
2020-07-01 08:17:11 GMT 14.474301 100.204369 10,250 119 333 0
2020-07-01 08:17:08 GMT 14.476868 100.199577 10,250 119 333 0
2020-07-01 08:17:03 GMT 14.479797 100.194084 10,250 118 333 0
2020-07-01 08:17:00 GMT 14.482224 100.189629 10,250 118 333 0
2020-07-01 08:16:57 GMT 14.484449 100.185341 10,250 118 333 0
2020-07-01 08:16:53 GMT 14.487534 100.179497 10,250 118 333 0
2020-07-01 08:16:50 GMT 14.490269 100.174156 10,250 118 332 0
2020-07-01 08:16:47 GMT 14.492177 100.170929 10,250 118 332 0
2020-07-01 08:16:42 GMT 14.495270 100.164909 10,250 118 332 0
2020-07-01 08:16:39 GMT 14.498154 100.159416 10,250 118 332 0
2020-07-01 08:16:34 GMT 14.501770 100.152740 10,250 118 331 0
2020-07-01 08:16:31 GMT 14.503510 100.149475 10,250 118 331 0
2020-07-01 08:16:26 GMT 14.509867 100.137444 10,250 118 330 0
2020-07-01 08:16:19 GMT 14.511915 100.133682 10,250 118 330 0
2020-07-01 08:16:16 GMT 14.514496 100.129013 10,250 118 330 0
2020-07-01 08:16:13 GMT 14.517548 100.123177 10,250 118 328 0
2020-07-01 08:16:10 GMT 14.519302 100.120110 10,250 119 329 0
2020-07-01 08:16:05 GMT 14.523422 100.112396 10,250 118 328 0
2020-07-01 08:16:02 GMT 14.525482 100.108604 10,250 118 328 0
2020-07-01 08:15:58 GMT 14.527863 100.104156 10,250 118 328 0
2020-07-01 08:15:54 GMT 14.531113 100.098137 10,250 118 328 0
2020-07-01 08:15:51 GMT 14.533356 100.093834 10,250 119 327 0
2020-07-01 08:15:47 GMT 14.535782 100.089378 10,250 119 327 0
2020-07-01 08:15:44 GMT 14.539032 100.083366 10,250 119 327 0
2020-07-01 08:15:41 GMT 14.540917 100.079956 10,250 119 327 0
2020-07-01 08:15:38 GMT 14.542640 100.076675 10,250 119 325 0
2020-07-01 08:15:34 GMT 14.546597 100.069641 10,250 119 325 0
2020-07-01 08:15:31 GMT 14.548645 100.065697 10,250 119 325 0
2020-07-01 08:15:27 GMT 14.550367 100.062416 10,250 118 325 0
2020-07-01 08:15:24 GMT 14.553626 100.056587 10,250 118 324 0
2020-07-01 08:15:20 GMT 14.556015 100.051971 10,250 118 324 0
2020-07-01 08:15:15 GMT 14.559631 100.045067 10,250 119 323 0
2020-07-01 08:15:12 GMT 14.562052 100.040779 10,250 119 323 0
2020-07-01 08:15:09 GMT 14.564100 100.037025 10,250 119 323 0
2020-07-01 08:15:06 GMT 14.565962 100.033264 10,250 119 322 0
2020-07-01 08:15:02 GMT 14.569931 100.026016 10,250 118 322 64
2020-07-01 08:14:59 GMT 14.571625 100.022797 10,250 118 322 0
2020-07-01 08:14:55 GMT 14.573550 100.019341 10,250 119 321 0
2020-07-01 08:14:51 GMT 14.577321 100.012306 10,250 119 321 0
2020-07-01 08:14:48 GMT 14.579178 100.008873 10,250 118 320 0
2020-07-01 08:14:45 GMT 14.581418 100.004738 10,250 118 320 0
2020-07-01 08:14:42 GMT 14.583481 100.000824 10,250 118 319 0
2020-07-01 08:14:38 GMT 14.586731 99.994957 10,250 118 319 -64
2020-07-01 08:14:34 GMT 14.588974 99.990692 10,250 118 318 -64
2020-07-01 08:14:30 GMT 14.592590 99.983971 10,250 118 317 0
2020-07-01 08:14:27 GMT 14.594467 99.980560 10,250 118 317 0
2020-07-01 08:14:22 GMT 14.598270 99.973320 10,250 118 315 0
2020-07-01 08:14:17 GMT 14.601837 99.966827 10,250 118 315 0
2020-07-01 08:14:13 GMT 14.603903 99.962868 10,250 118 314 0
2020-07-01 08:14:09 GMT 14.607330 99.956169 10,250 118 312 0
2020-07-01 08:14:06 GMT 14.609256 99.952744 10,250 118 312 0
2020-07-01 08:14:01 GMT 14.612823 99.945702 10,250 118 311 0
2020-07-01 08:13:56 GMT 14.616119 99.939362 10,250 118 310 0
2020-07-01 08:13:52 GMT 14.621933 99.928513 10,250 118 309 0
2020-07-01 08:13:48 GMT 14.621933 99.928513 10,250 118 309 0
2020-07-01 08:13:45 GMT 14.623306 99.925766 10,250 118 309 0
2020-07-01 08:13:39 GMT 14.627243 99.918053 10,250 118 308 0
2020-07-01 08:13:35 GMT 14.630356 99.912415 10,250 118 306 0
2020-07-01 08:13:30 GMT 14.633091 99.907066 10,250 118 306 0
2020-07-01 08:13:27 GMT 14.635651 99.902443 10,250 118 306 0
2020-07-01 08:13:24 GMT 14.637560 99.898827 10,250 118 306 0
2020-07-01 08:13:20 GMT 14.640306 99.893669 10,250 118 305 0
2020-07-01 08:13:14 GMT 14.644775 99.885429 10,250 118 305 0
2020-07-01 08:13:09 GMT 14.648712 99.878227 10,250 119 304 0
2020-07-01 08:13:04 GMT 14.651805 99.872421 10,250 119 303 0
2020-07-01 08:12:59 GMT 14.655063 99.866928 10,250 120 303 0
2020-07-01 08:12:53 GMT 14.659882 99.858665 10,250 122 301 0
2020-07-01 08:12:48 GMT 14.663303 99.853195 10,250 123 302 0
2020-07-01 08:12:42 GMT 14.667435 99.846642 10,250 122 301 -64
2020-07-01 08:12:36 GMT 14.671729 99.839462 10,275 120 301 -64
2020-07-01 08:12:32 GMT 14.675314 99.833099 10,275 120 300 0
2020-07-01 08:12:26 GMT 14.678925 99.826889 10,275 120 300 0
2020-07-01 08:12:21 GMT 14.682715 99.820236 10,275 120 300 0
2020-07-01 08:12:16 GMT 14.685974 99.814529 10,275 120 301 -64
2020-07-01 08:12:10 GMT 14.690781 99.805962 10,275 119 301 -64
2020-07-01 08:12:05 GMT 14.693702 99.800819 10,275 119 301 0
2020-07-01 08:12:00 GMT 14.697473 99.793777 10,275 118 300 0
2020-07-01 08:11:55 GMT 14.700394 99.787781 10,275 117 301 0
2020-07-01 08:11:50 GMT 14.704176 99.780388 10,275 117 300 0
2020-07-01 08:11:44 GMT 14.707581 99.773521 10,250 117 300 64
2020-07-01 08:11:41 GMT 14.710190 99.768364 10,250 117 302 64
2020-07-01 08:11:38 GMT 14.710876 99.766846 10,250 117 302 64
2020-07-01 08:11:33 GMT 14.714138 99.760483 10,250 117 305 128
2020-07-01 08:11:30 GMT 14.717024 99.754654 10,225 118 308 192
2020-07-01 08:11:23 GMT 14.721176 99.747238 10,225 120 313 -128
2020-07-01 08:11:17 GMT 14.725800 99.739525 10,275 123 319 -576
2020-07-01 08:11:12 GMT 14.729919 99.733368 10,325 125 321 -704
2020-07-01 08:11:08 GMT 14.734909 99.726501 10,400 127 324 -1024
2020-07-01 08:11:02 GMT 14.739509 99.720490 10,525 130 324 -1472
2020-07-01 08:10:57 GMT 14.745346 99.713806 10,675 133 325 -1984
2020-07-01 08:10:51 GMT 14.750839 99.707939 10,850 135 324 -1856
2020-07-01 08:10:47 GMT 14.756195 99.702820 10,975 137 324 -1664
2020-07-01 08:10:43 GMT 14.760635 99.698700 11,100 137 324 -1664
2020-07-01 08:10:34 GMT 14.769058 99.690796 11,300 137 324 -1664
2020-07-01 08:10:30 GMT 14.774191 99.685799 11,425 137 326 -1664
2020-07-01 08:10:25 GMT 14.780382 99.679970 11,575 137 326 -1728
2020-07-01 08:10:20 GMT 14.785538 99.675163 11,675 137 326 -1664
2020-07-01 08:10:14 GMT 14.792393 99.668449 11,900 137 327 -1664
2020-07-01 08:10:09 GMT 14.797531 99.663658 12,025 137 327 -1600
2020-07-01 08:10:04 GMT 14.804589 99.656982 12,175 137 329 -1600
2020-07-01 08:10:01 GMT 14.807510 99.654236 12,250 137 329 -1600
2020-07-01 08:09:58 GMT 14.810074 99.651634 12,325 137 329 -1600
2020-07-01 08:09:53 GMT 14.816600 99.645470 12,475 136 329 -1664
2020-07-01 08:09:48 GMT 14.821426 99.640831 12,600 137 330 -1728
2020-07-01 08:09:44 GMT 14.828796 99.633781 12,800 137 331 -1728
2020-07-01 08:09:37 GMT 14.833265 99.629517 12,900 137 331 -1664
2020-07-01 08:09:32 GMT 14.840790 99.622482 13,100 137 331 -1792
2020-07-01 08:09:29 GMT 14.842343 99.620934 13,125 137 331 -1792
2020-07-01 08:09:26 GMT 14.845779 99.617661 13,225 137 331 -1856
2020-07-01 08:09:22 GMT 14.850769 99.613037 13,400 137 332 -1728
2020-07-01 08:09:19 GMT 14.854385 99.609566 13,450 137 332 -1728
2020-07-01 08:09:16 GMT 14.857132 99.606819 13,525 137 332 -1728
2020-07-01 08:09:12 GMT 14.862780 99.601509 13,650 137 334 -1600
2020-07-01 08:09:09 GMT 14.866364 99.597931 13,750 137 334 -1664
2020-07-01 08:09:05 GMT 14.869308 99.595161 13,825 136 334 -1664
2020-07-01 08:09:00 GMT 14.877045 99.587593 14,025 136 336 -1600
2020-07-01 08:08:57 GMT 14.878922 99.585907 14,050 136 336 -1536
2020-07-01 08:08:54 GMT 14.882331 99.582626 14,125 137 337 -1472
2020-07-01 08:08:51 GMT 14.886658 99.578346 14,225 136 338 -1408
2020-07-01 08:08:48 GMT 14.890059 99.575073 14,300 136 340 -1344
2020-07-01 08:08:40 GMT 14.899323 99.566147 14,500 136 342 -1792
2020-07-01 08:08:37 GMT 14.901901 99.563744 14,575 136 342 -1984
2020-07-01 08:08:33 GMT 14.906570 99.559311 14,725 136 342 -2112
2020-07-01 08:08:29 GMT 14.911892 99.554131 14,925 137 341 -1984
2020-07-01 08:08:26 GMT 14.913940 99.552078 14,925 137 341 -1984
2020-07-01 08:08:22 GMT 14.918564 99.547600 15,075 137 341 -1984
2020-07-01 08:08:19 GMT 14.923530 99.542999 15,200 137 341 -2304
2020-07-01 08:08:16 GMT 14.926277 99.540398 15,300 137 341 -2304
2020-07-01 08:08:10 GMT 14.934703 99.532501 15,550 137 340 -1920
2020-07-01 08:08:06 GMT 14.938473 99.529068 15,625 137 341 -1536
2020-07-01 08:07:59 GMT 14.947220 99.520859 15,800 137 344 -960
2020-07-01 08:07:56 GMT 14.951019 99.517242 15,825 137 344 -960
2020-07-01 08:07:51 GMT 14.955826 99.512955 15,900 137 344 -960
2020-07-01 08:07:48 GMT 14.959579 99.509338 15,975 137 344 -896
2020-07-01 08:07:45 GMT 14.966824 99.502487 16,050 137 345 -832
2020-07-01 08:07:38 GMT 14.972131 99.497482 16,100 137 346 -768
2020-07-01 08:07:35 GMT 14.975555 99.494064 16,125 137 346 -832
2020-07-01 08:07:30 GMT 14.980865 99.489250 16,200 137 346 -768
2020-07-01 08:07:26 GMT 14.986038 99.484283 16,250 137 346 -768
2020-07-01 08:07:22 GMT 14.990146 99.480515 16,300 137 346 -768
2020-07-01 08:07:16 GMT 14.998398 99.472626 16,400 137 347 -832
2020-07-01 08:07:12 GMT 15.002151 99.469009 16,425 137 347 -832
2020-07-01 08:07:08 GMT 15.006454 99.464867 16,500 137 347 -832
2020-07-01 08:07:05 GMT 15.010909 99.460602 16,550 137 348 -832
2020-07-01 08:07:01 GMT 15.015238 99.456627 16,600 137 348 -896
2020-07-01 08:06:55 GMT 15.023478 99.448929 16,700 137 348 -896
2020-07-01 08:06:50 GMT 15.028273 99.444466 16,750 137 348 -960
2020-07-01 08:06:47 GMT 15.031531 99.441376 16,800 137 348 -1024
2020-07-01 08:06:43 GMT 15.037537 99.435524 16,900 136 348 -1024
2020-07-01 08:06:40 GMT 15.040469 99.432594 16,925 135 349 -960
2020-07-01 08:06:35 GMT 15.047150 99.425735 17,025 133 349 -640
2020-07-01 08:06:32 GMT 15.049393 99.423332 17,050 133 349 -576
2020-07-01 08:06:29 GMT 15.052460 99.419907 17,050 133 349 -576
2020-07-01 08:06:22 GMT 15.065189 99.406845 17,175 136 350 -768
2020-07-01 08:06:18 GMT 15.065189 99.406845 17,175 137 351 -832
2020-07-01 08:06:14 GMT 15.071182 99.401215 17,250 138 351 -832
2020-07-01 08:06:11 GMT 15.073940 99.398804 17,275 138 351 -832
2020-07-01 08:06:07 GMT 15.078223 99.394684 17,300 138 351 -640
2020-07-01 08:06:02 GMT 15.085785 99.387627 17,350 137 351 -192
2020-07-01 08:05:59 GMT 15.089539 99.384010 17,375 136 352 -128
2020-07-01 08:05:54 GMT 15.098287 99.375458 17,375 136 352 -64
2020-07-01 08:05:51 GMT 15.098287 99.375458 17,375 136 352 -64
2020-07-01 08:05:48 GMT 15.102951 99.371002 17,375 136 352 -64
2020-07-01 08:05:44 GMT 15.106201 99.367722 17,375 136 352 -128
2020-07-01 08:05:39 GMT 15.111694 99.362411 17,400 136 352 -128
2020-07-01 08:05:36 GMT 15.115311 99.358955 17,400 136 352 0
2020-07-01 08:05:33 GMT 15.119064 99.355339 17,400 137 351 -64
2020-07-01 08:05:30 GMT 15.123871 99.350716 17,400 137 351 -64
2020-07-01 08:05:27 GMT 15.127808 99.347099 17,400 138 351 -64
2020-07-01 08:05:20 GMT 15.136047 99.339584 17,425 138 351 -320
2020-07-01 08:05:16 GMT 15.140854 99.335098 17,450 138 349 -576
2020-07-01 08:05:09 GMT 15.149643 99.327057 17,575 137 346 -1024
2020-07-01 08:05:04 GMT 15.154103 99.322929 17,625 137 344 -960
2020-07-01 08:05:00 GMT 15.160446 99.316887 17,700 137 340 -832
2020-07-01 08:04:57 GMT 15.162157 99.315376 17,725 137 339 -768
2020-07-01 08:04:53 GMT 15.166812 99.311058 17,775 137 337 -640
2020-07-01 08:04:50 GMT 15.170397 99.307480 17,800 137 335 -576
2020-07-01 08:04:47 GMT 15.173655 99.304535 17,825 137 334 -512
2020-07-01 08:04:42 GMT 15.178986 99.299591 17,875 137 331 -512
2020-07-01 08:04:37 GMT 15.185526 99.293404 17,900 137 326 -384
2020-07-01 08:04:32 GMT 15.190979 99.288071 17,950 137 325 -384
2020-07-01 08:04:26 GMT 15.196838 99.282578 17,975 137 322 -320
2020-07-01 08:04:23 GMT 15.202332 99.277412 17,975 137 320 -128
2020-07-01 08:04:16 GMT 15.209015 99.270920 18,000 137 319 0
2020-07-01 08:04:11 GMT 15.214016 99.266281 18,000 137 317 0
2020-07-01 08:04:06 GMT 15.220688 99.259933 18,000 137 315 0
2020-07-01 08:04:00 GMT 15.225494 99.255257 18,000 137 314 0
2020-07-01 08:03:57 GMT 15.230309 99.250633 18,000 137 312 -64
2020-07-01 08:03:54 GMT 15.232544 99.248573 18,000 137 312 -64
2020-07-01 08:03:50 GMT 15.239760 99.241707 18,000 136 310 -128
2020-07-01 08:03:47 GMT 15.239760 99.241707 18,000 136 310 -64
2020-07-01 08:03:43 GMT 15.243713 99.237961 18,000 137 309 -64
2020-07-01 08:03:38 GMT 15.248337 99.233482 18,000 137 309 0
2020-07-01 08:03:34 GMT 15.254005 99.227974 18,000 137 309 0
2020-07-01 08:03:28 GMT 15.259498 99.222679 18,000 136 310 0
2020-07-01 08:03:23 GMT 15.265503 99.216988 18,000 136 312 0
2020-07-01 08:03:17 GMT 15.270484 99.212036 18,000 136 312 0
2020-07-01 08:03:14 GMT 15.274933 99.207748 18,000 136 312 0
2020-07-01 08:03:07 GMT 15.281982 99.201050 18,000 136 314 0
2020-07-01 08:03:02 GMT 15.288162 99.195030 18,000 136 314 64
2020-07-01 08:02:57 GMT 15.292465 99.190880 18,000 137 316 0
2020-07-01 08:02:51 GMT 15.299652 99.183846 18,000 137 316 0
2020-07-01 08:02:45 GMT 15.304962 99.179077 18,000 137 317 0
2020-07-01 08:02:41 GMT 15.310638 99.173729 18,000 137 318 0
2020-07-01 08:02:32 GMT 15.320109 99.164803 18,000 137 319 0
2020-07-01 08:02:29 GMT 15.321991 99.162933 18,000 137 319 0
2020-07-01 08:02:26 GMT 15.327464 99.157791 18,000 137 321 0
2020-07-01 08:02:22 GMT 15.333981 99.151413 18,000 137 322 -64
2020-07-01 08:02:15 GMT 15.339157 99.146599 18,000 137 322 0
2020-07-01 08:02:09 GMT 15.345480 99.140625 18,000 137 322 0
2020-07-01 08:02:04 GMT 15.350833 99.135620 18,000 137 323 0
2020-07-01 08:02:01 GMT 15.355087 99.131660 18,000 137 324 0
2020-07-01 08:01:54 GMT 15.362640 99.124481 18,000 137 325 0
2020-07-01 08:01:51 GMT 15.365916 99.121399 18,000 137 325 0
2020-07-01 08:01:48 GMT 15.368989 99.118309 18,000 137 326 0
2020-07-01 08:01:42 GMT 15.374482 99.113304 18,000 137 327 0
2020-07-01 08:01:37 GMT 15.381185 99.106979 18,000 137 327 0
2020-07-01 08:01:32 GMT 15.386353 99.102173 18,000 137 328 0
2020-07-01 08:01:27 GMT 15.392870 99.095993 18,000 137 329 0
2020-07-01 08:01:21 GMT 15.399201 99.090157 18,000 137 329 0
2020-07-01 08:01:16 GMT 15.405253 99.084663 18,000 137 330 0
2020-07-01 08:01:10 GMT 15.410889 99.079330 18,000 138 332 0
2020-07-01 08:01:06 GMT 15.416751 99.074020 18,000 138 332 0
2020-07-01 08:00:58 GMT 15.426178 99.065262 18,000 138 334 0
2020-07-01 08:00:47 GMT 15.439562 99.053421 18,000 139 336 0
2020-07-01 08:00:43 GMT 15.443007 99.050476 18,000 140 336 0
2020-07-01 08:00:38 GMT 15.450222 99.044296 18,000 141 337 0
2020-07-01 08:00:32 GMT 15.457397 99.038467 18,000 142 339 64
2020-07-01 08:00:26 GMT 15.463440 99.033844 18,000 147 344 0
2020-07-01 08:00:23 GMT 15.468424 99.030220 18,000 147 344 0
2020-07-01 08:00:17 GMT 15.476804 99.024384 18,000 147 343 0
2020-07-01 08:00:13 GMT 15.481979 99.020981 18,000 147 344 0
2020-07-01 08:00:05 GMT 15.491421 99.014771 18,000 146 346 64
2020-07-01 08:00:02 GMT 15.495518 99.011681 18,000 143 347 64
2020-07-01 07:59:55 GMT 15.504272 99.005318 18,000 143 347 64
2020-07-01 07:59:51 GMT 15.510452 99.000549 18,000 143 349 -128
2020-07-01 07:59:43 GMT 15.520749 98.992798 18,025 143 349 -832
2020-07-01 07:59:34 GMT 15.531921 98.984406 18,200 143 347 -576
2020-07-01 07:59:23 GMT 15.546865 98.973228 18,225 144 348 -256
2020-07-01 07:59:12 GMT 15.560760 98.962769 18,275 143 349 -384
2020-07-01 07:59:04 GMT 15.573303 98.953323 18,350 144 349 -448
2020-07-01 07:59:01 GMT 15.574656 98.952286 18,350 144 349 -448
2020-07-01 07:58:51 GMT 15.588043 98.942345 18,425 144 349 -512
2020-07-01 07:58:42 GMT 15.599888 98.933601 18,500 144 349 -384
2020-07-01 07:58:39 GMT 15.604170 98.930313 18,550 143 350 -384
2020-07-01 07:58:30 GMT 15.616181 98.921387 18,550 143 350 -320
2020-07-01 07:58:22 GMT 15.627167 98.913002 18,625 143 350 -448
2020-07-01 07:58:12 GMT 15.641602 98.902153 18,700 144 349 -576
2020-07-01 07:58:08 GMT 15.644348 98.900131 18,725 144 349 -576
2020-07-01 07:57:58 GMT 15.658450 98.889999 18,825 144 349 -448
2020-07-01 07:57:47 GMT 15.672318 98.879509 18,875 142 349 -192
2020-07-01 07:57:37 GMT 15.685404 98.868027 19,000 135 348 -896
2020-07-01 07:57:26 GMT 15.697037 98.854111 19,125 124 346 -384
2020-07-01 07:57:15 GMT 15.705980 98.839188 19,200 120 346 -448
2020-07-01 07:57:05 GMT 15.714546 98.824425 19,275 120 346 -512
2020-07-01 07:56:58 GMT 15.720245 98.814262 19,350 120 346 -576
2020-07-01 07:56:54 GMT 15.723495 98.808624 19,375 120 346 -512
2020-07-01 07:56:43 GMT 15.731910 98.794014 19,450 120 346 -448
2020-07-01 07:56:38 GMT 15.737411 98.784584 19,500 120 347 -512
2020-07-01 07:56:32 GMT 15.740845 98.778221 19,550 120 347 -512
2020-07-01 07:56:25 GMT 15.747179 98.766891 19,625 119 348 -512
2020-07-01 07:56:22 GMT 15.749413 98.762970 19,650 119 348 -384
2020-07-01 07:56:09 GMT 15.759562 98.744919 19,725 121 349 -576
2020-07-01 07:56:01 GMT 15.768314 98.733246 19,825 131 351 -576
2020-07-01 07:55:54 GMT 15.775483 98.725548 19,900 136 353 -576
2020-07-01 07:55:50 GMT 15.780487 98.720543 19,925 136 353 -576
2020-07-01 07:55:43 GMT 15.788727 98.712830 20,000 137 353 -576
2020-07-01 07:55:39 GMT 15.793685 98.707840 20,075 137 353 -768
2020-07-01 07:55:33 GMT 15.800900 98.700974 20,150 137 352 -1024
2020-07-01 07:55:25 GMT 15.812759 98.689850 20,375 137 345 -1728
2020-07-01 07:55:04 GMT 15.835236 98.668358 20,875 137 337 -1472
2020-07-01 07:54:57 GMT 15.843475 98.660309 21,000 137 336 -448
2020-07-01 07:54:46 GMT 15.855692 98.648643 21,000 137 338 0
2020-07-01 07:54:41 GMT 15.862381 98.642288 21,000 137 341 0
2020-07-01 07:54:35 GMT 15.868215 98.636627 21,000 137 343 0
2020-07-01 07:54:32 GMT 15.872823 98.632164 21,000 136 344 0
2020-07-01 07:54:21 GMT 15.885532 98.619804 21,000 136 348 0
2020-07-01 07:54:12 GMT 15.897217 98.608276 21,000 135 351 -64
2020-07-01 07:54:03 GMT 15.905777 98.599358 21,025 135 354 0
2020-07-01 07:54:00 GMT 15.910080 98.595070 21,025 135 354 0
2020-07-01 07:53:52 GMT 15.919189 98.586151 21,025 136 358 64
2020-07-01 07:53:42 GMT 15.931200 98.574486 21,000 136 364 0
2020-07-01 07:53:32 GMT 15.944229 98.561768 21,000 136 365 0
2020-07-01 07:53:21 GMT 15.957828 98.548538 21,000 136 365 0
2020-07-01 07:53:10 GMT 15.970871 98.535652 21,000 136 365 0
2020-07-01 07:53:00 GMT 15.983734 98.523125 21,000 136 366 0
2020-07-01 07:52:49 GMT 15.997304 98.509743 21,000 136 367 0
2020-07-01 07:52:38 GMT 16.010513 98.497055 21,000 136 367 -64
2020-07-01 07:52:27 GMT 16.023560 98.484192 21,000 136 368 0
2020-07-01 07:52:17 GMT 16.036789 98.471130 21,000 136 369 -64
2020-07-01 07:52:06 GMT 16.050001 98.458244 21,000 136 371 0
2020-07-01 07:51:55 GMT 16.064060 98.444511 21,000 136 371 0
2020-07-01 07:51:45 GMT 16.076752 98.432007 21,000 136 372 0
2020-07-01 07:51:34 GMT 16.090176 98.418762 21,000 136 372 0
2020-07-01 07:51:23 GMT 16.103724 98.405571 21,000 136 374 0
2020-07-01 07:51:13 GMT 16.117126 98.392349 21,000 136 374 0
2020-07-01 07:51:02 GMT 16.131180 98.378426 21,000 136 376 0
2020-07-01 07:50:52 GMT 16.143356 98.366425 21,000 136 377 0
2020-07-01 07:50:41 GMT 16.157089 98.353027 21,000 136 377 0
2020-07-01 07:50:30 GMT 16.170685 98.339439 21,000 136 378 0
2020-07-01 07:50:20 GMT 16.184212 98.326065 21,000 136 379 0
2020-07-01 07:50:09 GMT 16.198130 98.312531 21,000 136 380 0
2020-07-01 07:49:59 GMT 16.211351 98.299286 21,000 136 381 0
2020-07-01 07:49:47 GMT 16.225782 98.285065 21,000 136 383 0
2020-07-01 07:49:37 GMT 16.238983 98.272179 21,000 136 384 0
2020-07-01 07:49:27 GMT 16.252735 98.258629 20,975 136 386 0
2020-07-01 07:49:16 GMT 16.266632 98.245049 20,975 136 388 0
2020-07-01 07:49:05 GMT 16.281235 98.230637 21,000 136 389 0
2020-07-01 07:48:54 GMT 16.295471 98.216713 21,000 136 391 0
2020-07-01 07:48:44 GMT 16.309017 98.203499 21,000 136 393 0
2020-07-01 07:48:33 GMT 16.323120 98.189781 21,000 136 394 0
2020-07-01 07:48:14 GMT 16.348846 98.164528 21,000 136 397 0
2020-07-01 07:47:22 GMT 16.418880 98.093834 20,975 135 408 0
2020-07-01 07:47:18 GMT 16.424057 98.088684 20,975 136 410 0
2020-07-01 07:47:08 GMT 16.437967 98.074608 20,975 136 412 0
2020-07-01 07:45:50 GMT 16.548483 97.964745 21,000 135 432 -384
2020-07-01 07:45:29 GMT 16.579067 97.933846 21,150 135 434 -384
2020-07-01 07:45:26 GMT 16.582977 97.929726 21,175 135 434 -384
2020-07-01 07:45:15 GMT 16.598969 97.913574 21,250 135 434 -448
2020-07-01 07:45:05 GMT 16.613388 97.898979 21,300 135 435 -448
2020-07-01 07:44:54 GMT 16.629684 97.882690 21,375 136 436 -384
2020-07-01 07:44:43 GMT 16.645477 97.866692 21,450 135 437 -384
2020-07-01 07:44:32 GMT 16.660767 97.851250 21,525 135 437 -384
2020-07-01 07:44:21 GMT 16.676361 97.835312 21,600 135 437 -448
2020-07-01 07:44:11 GMT 16.691849 97.819664 21,650 135 437 -384
2020-07-01 07:44:00 GMT 16.708145 97.803185 21,725 135 436 -384
2020-07-01 07:43:49 GMT 16.723755 97.787376 21,800 135 437 -384
2020-07-01 07:43:37 GMT 16.740417 97.770081 21,875 134 436 -384
2020-07-01 07:43:27 GMT 16.754837 97.755142 21,950 134 436 -384
2020-07-01 07:42:47 GMT 16.811646 97.693848 22,200 133 437 -320
2020-07-01 07:42:44 GMT 16.815786 97.689201 22,225 133 437 -320
2020-07-01 07:42:32 GMT 16.832245 97.671204 22,300 132 438 -384
2020-07-01 07:42:06 GMT 16.861771 97.625717 22,475 113 441 -384
2020-07-01 07:41:59 GMT 16.867447 97.611450 22,525 111 441 -384
2020-07-01 07:38:20 GMT 16.595718 97.390717 24,325 326 447 -832
2020-07-01 07:37:19 GMT 16.508167 97.483894 25,200 312 440 -832
2020-07-01 07:36:31 GMT 16.443600 97.558250 25,850 312 432 -832
2020-07-01 07:36:24 GMT 16.433670 97.569725 25,975 312 431 -832
2020-07-01 07:36:13 GMT 16.419250 97.586395 26,125 312 429 -896
2020-07-01 07:36:01 GMT 16.403612 97.604401 26,275 312 427 -768
2020-07-01 07:35:51 GMT 16.390549 97.619354 26,425 312 426 -832
2020-07-01 07:35:40 GMT 16.375959 97.635986 26,575 312 424 -896
2020-07-01 07:35:30 GMT 16.362226 97.651779 26,725 313 422 -832
2020-07-01 07:35:19 GMT 16.348680 97.667427 26,875 313 421 -896
2020-07-01 07:35:08 GMT 16.334244 97.683876 27,025 313 419 -832
2020-07-01 07:34:58 GMT 16.319864 97.700188 27,175 313 416 -832
2020-07-01 07:34:46 GMT 16.305246 97.716866 27,350 313 414 -896
2020-07-01 07:34:36 GMT 16.291840 97.732117 27,500 313 414 -832
2020-07-01 07:34:25 GMT 16.277967 97.748108 27,650 313 411 -896
2020-07-01 07:34:14 GMT 16.263536 97.764389 27,800 313 409 -896
2020-07-01 07:34:03 GMT 16.249617 97.780037 27,975 313 407 -832
2020-07-01 07:33:52 GMT 16.236053 97.795280 28,125 313 406 -896
2020-07-01 07:33:41 GMT 16.222151 97.811081 28,250 313 404 -832
2020-07-01 07:32:58 GMT 16.167755 97.874786 28,600 312 405 -576
2020-07-01 07:32:50 GMT 16.157776 97.886452 28,725 312 405 -1152
2020-07-01 07:32:47 GMT 16.154510 97.890244 28,775 312 403 -1472
2020-07-01 07:32:42 GMT 16.148163 97.897438 28,925 312 400 -1920
2020-07-01 07:32:36 GMT 16.141296 97.905479 29,100 312 397 -1984
2020-07-01 07:32:31 GMT 16.135284 97.912560 29,250 312 394 -1728
2020-07-01 07:32:26 GMT 16.128443 97.920456 29,375 312 391 -1216
2020-07-01 07:32:21 GMT 16.122437 97.927452 29,450 311 390 -384
2020-07-01 07:32:10 GMT 16.109894 97.943115 29,500 310 392 -256
2020-07-01 07:31:59 GMT 16.096506 97.959595 29,600 311 392 -512
2020-07-01 07:31:49 GMT 16.084496 97.973671 29,650 313 392 -384
2020-07-01 07:31:38 GMT 16.071442 97.988602 29,750 312 393 -640
2020-07-01 07:31:27 GMT 16.058395 98.003876 29,875 311 394 -512
2020-07-01 07:31:16 GMT 16.045345 98.019821 29,950 310 396 -576
2020-07-01 07:31:06 GMT 16.033522 98.034439 30,075 311 396 -768
2020-07-01 07:30:56 GMT 16.020996 98.049896 30,250 311 394 -1216
2020-07-01 07:30:44 GMT 16.006714 98.065842 30,950 315 386 -2432
2020-07-01 07:30:34 GMT 15.993859 98.079216 30,925 315 382 -2240
2020-07-01 07:30:31 GMT 15.990097 98.083191 31,050 315 381 -1792
2020-07-01 07:30:22 GMT 15.977892 98.095695 31,225 318 379 -1024
2020-07-01 07:30:11 GMT 15.964142 98.107574 31,350 322 379 -832
2020-07-01 07:30:02 GMT 15.952332 98.118172 31,450 318 382 -832
2020-07-01 07:29:56 GMT 15.944595 98.125740 31,525 315 383 -192
2020-07-01 07:29:51 GMT 15.938599 98.131905 31,550 315 385 -384
2020-07-01 07:29:40 GMT 15.925186 98.146362 31,675 315 385 -704
2020-07-01 07:29:30 GMT 15.912140 98.160095 31,800 314 386 -832
2020-07-01 07:29:19 GMT 15.898773 98.174500 31,900 315 386 -448
2020-07-01 07:29:07 GMT 15.881063 98.192513 32,000 316 387 -512
2020-07-01 07:28:58 GMT 15.871287 98.202469 32,200 310 391 -1152
2020-07-01 07:28:47 GMT 15.858066 98.216202 32,450 310 391 -1152
2020-07-01 07:28:43 GMT 15.851532 98.223747 32,450 310 391 -1152
2020-07-01 07:28:37 GMT 15.845218 98.231651 32,575 310 392 -1408
2020-07-01 07:28:26 GMT 15.833176 98.247116 32,875 309 390 -1984
2020-07-01 07:28:15 GMT 15.821182 98.262924 33,300 309 383 -2944
2020-07-01 07:28:04 GMT 15.809000 98.278343 33,850 310 374 -2624
2020-07-01 07:27:54 GMT 15.797470 98.292267 33,975 312 376 -128
2020-07-01 07:27:43 GMT 15.784927 98.307014 34,000 312 383 0
2020-07-01 07:27:35 GMT 15.771200 98.322830 34,000 312 393 64
2020-07-01 07:27:21 GMT 15.758011 98.337753 34,000 312 399 -64
2020-07-01 07:27:14 GMT 15.747365 98.350098 34,000 312 405 0
2020-07-01 07:27:11 GMT 15.745651 98.352165 34,000 312 406 0
2020-07-01 07:27:01 GMT 15.732422 98.367439 34,000 312 413 -64
2020-07-01 07:26:53 GMT 15.721756 98.379967 34,000 312 419 0
2020-07-01 07:26:49 GMT 15.717499 98.384789 34,000 313 420 0
2020-07-01 07:26:42 GMT 15.707520 98.396301 34,000 313 425 -64
2020-07-01 07:26:34 GMT 15.697415 98.407288 34,000 313 429 0
2020-07-01 07:26:31 GMT 15.693466 98.411911 34,000 314 430 0
2020-07-01 07:26:26 GMT 15.686234 98.419815 34,000 314 435 64
2020-07-01 07:26:22 GMT 15.678497 98.428200 34,000 314 436 64
2020-07-01 07:26:17 GMT 15.674057 98.433212 34,000 314 437 0
2020-07-01 07:26:10 GMT 15.663757 98.444511 34,000 314 441 64
2020-07-01 07:26:04 GMT 15.654121 98.455009 34,000 314 445 0
2020-07-01 07:26:01 GMT 15.650211 98.459473 34,000 314 447 -64
2020-07-01 07:25:55 GMT 15.642471 98.467857 34,000 314 449 -64
2020-07-01 07:25:50 GMT 15.635101 98.476097 34,000 313 452 -64
2020-07-01 07:25:44 GMT 15.619998 98.493118 34,000 313 455 0
2020-07-01 07:25:40 GMT 15.619998 98.493118 34,000 313 458 64
2020-07-01 07:25:33 GMT 15.610382 98.503899 33,975 312 462 0
2020-07-01 07:25:29 GMT 15.604706 98.510452 33,975 312 463 0
2020-07-01 07:25:23 GMT 15.590112 98.527596 33,975 312 469 64
2020-07-01 07:25:18 GMT 15.590112 98.527596 33,975 312 469 64
2020-07-01 07:25:12 GMT 15.581360 98.537750 33,975 312 472 0
2020-07-01 07:25:07 GMT 15.574330 98.545792 33,975 312 475 0
2020-07-01 07:25:02 GMT 15.565750 98.555748 33,975 312 477 0
2020-07-01 07:24:57 GMT 15.559387 98.563316 34,000 312 478 0
2020-07-01 07:24:52 GMT 15.552155 98.571358 34,000 312 480 0
2020-07-01 07:24:47 GMT 15.543228 98.581673 34,000 312 481 0
2020-07-01 07:24:42 GMT 15.536545 98.589233 34,000 312 482 0
2020-07-01 07:24:36 GMT 15.526428 98.600899 34,000 312 482 0
2020-07-01 07:24:31 GMT 15.520432 98.607933 34,000 312 484 0
2020-07-01 07:24:27 GMT 15.509437 98.620636 34,000 313 484 0
2020-07-01 07:24:19 GMT 15.502733 98.628189 34,000 313 485 0
2020-07-01 07:24:16 GMT 15.495331 98.636429 34,000 313 486 0
2020-07-01 07:24:10 GMT 15.487793 98.645035 34,000 313 486 -64
2020-07-01 07:24:05 GMT 15.480760 98.652908 34,000 313 486 0
2020-07-01 07:23:59 GMT 15.472195 98.662521 34,000 313 486 0
2020-07-01 07:23:55 GMT 15.464630 98.671104 34,000 313 486 0
2020-07-01 07:23:49 GMT 15.455855 98.681061 34,000 313 485 0
2020-07-01 07:23:44 GMT 15.449198 98.688614 34,000 313 486 0
2020-07-01 07:23:38 GMT 15.439888 98.698914 34,000 313 485 0
2020-07-01 07:23:35 GMT 15.432719 98.707153 34,000 313 485 0
2020-07-01 07:23:27 GMT 15.423248 98.717796 34,000 313 485 0
2020-07-01 07:23:24 GMT 15.417403 98.724319 34,000 313 485 0
2020-07-01 07:23:17 GMT 15.407115 98.735992 34,000 313 485 0
2020-07-01 07:23:14 GMT 15.401276 98.742516 34,000 313 485 0
2020-07-01 07:23:06 GMT 15.391334 98.753845 34,000 313 485 64
2020-07-01 07:23:02 GMT 15.385483 98.760391 34,000 313 486 64
2020-07-01 07:22:56 GMT 15.375183 98.771858 34,000 313 486 0
2020-07-01 07:22:53 GMT 15.369690 98.778076 34,000 313 486 0
2020-07-01 07:22:42 GMT 15.353897 98.796097 34,000 313 486 0
2020-07-01 07:22:34 GMT 15.342224 98.809105 34,000 313 486 0
2020-07-01 07:22:31 GMT 15.337752 98.814270 34,000 313 486 0
2020-07-01 07:22:21 GMT 15.321442 98.832283 34,000 313 486 0
2020-07-01 07:22:13 GMT 15.309952 98.845345 34,000 313 486 0
2020-07-01 07:22:10 GMT 15.305649 98.850159 34,000 313 486 0
2020-07-01 07:22:01 GMT 15.290036 98.867828 34,000 313 487 0
2020-07-01 07:21:52 GMT 15.277839 98.881561 34,000 313 487 0
2020-07-01 07:21:49 GMT 15.274255 98.885681 34,000 313 486 0
2020-07-01 07:21:40 GMT 15.258133 98.903893 34,000 313 486 0
2020-07-01 07:21:29 GMT 15.242506 98.921387 34,000 313 487 0
2020-07-01 07:21:22 GMT 15.231857 98.933426 34,000 313 487 0
2020-07-01 07:21:17 GMT 15.222748 98.943687 34,000 313 487 0
2020-07-01 07:21:09 GMT 15.212265 98.955399 34,000 313 488 0
2020-07-01 07:21:06 GMT 15.207638 98.960526 34,000 313 488 0
2020-07-01 07:21:02 GMT 15.201633 98.967392 34,000 313 487 0
2020-07-01 07:20:56 GMT 15.190842 98.979393 34,000 313 488 0
2020-07-01 07:20:53 GMT 15.186364 98.984558 34,000 313 488 64
2020-07-01 07:20:46 GMT 15.175890 98.996429 34,000 313 488 0
2020-07-01 07:20:37 GMT 15.157502 99.017029 34,000 313 489 0
2020-07-01 07:20:30 GMT 15.153079 99.021835 34,000 313 489 0
2020-07-01 07:20:25 GMT 15.143955 99.032135 34,000 313 489 0
2020-07-01 07:20:20 GMT 15.134691 99.042580 34,000 313 490 0
2020-07-01 07:20:16 GMT 15.130737 99.047050 34,000 313 490 0
2020-07-01 07:20:13 GMT 15.126777 99.051506 34,000 313 490 0
2020-07-01 07:20:05 GMT 15.114441 99.065437 34,000 313 491 0
2020-07-01 07:20:02 GMT 15.109818 99.070564 34,000 313 491 0
2020-07-01 07:19:55 GMT 15.098287 99.083290 34,000 313 491 0
2020-07-01 07:19:52 GMT 15.093492 99.088928 34,000 313 491 0
2020-07-01 07:19:44 GMT 15.082320 99.101288 34,000 313 493 0
2020-07-01 07:19:41 GMT 15.077682 99.106461 34,000 313 493 0
2020-07-01 07:19:36 GMT 15.068436 99.116920 34,000 313 492 64
2020-07-01 07:19:33 GMT 15.065002 99.120712 34,000 313 492 64
2020-07-01 07:19:30 GMT 15.059509 99.127037 34,000 313 493 0
2020-07-01 07:19:24 GMT 15.043716 99.144722 34,000 313 492 64
2020-07-01 07:19:19 GMT 15.043716 99.144722 34,000 313 493 0
2020-07-01 07:19:14 GMT 15.033393 99.156219 34,000 313 492 64
2020-07-01 07:19:08 GMT 15.026871 99.163414 34,000 313 493 64
2020-07-01 07:19:03 GMT 15.017624 99.173920 34,000 313 493 0
2020-07-01 07:18:59 GMT 15.012492 99.179764 34,000 313 493 0
2020-07-01 07:18:53 GMT 15.001319 99.192268 34,000 313 494 64
2020-07-01 07:18:50 GMT 14.998581 99.195557 34,000 313 494 0
2020-07-01 07:18:40 GMT 14.981581 99.214584 34,000 313 493 -64
2020-07-01 07:18:37 GMT 14.978462 99.218018 34,000 313 493 -64
2020-07-01 07:18:31 GMT 14.969198 99.228516 34,025 313 493 -64
2020-07-01 07:18:27 GMT 14.962355 99.236214 34,025 313 493 -64
2020-07-01 07:18:19 GMT 14.948959 99.250969 34,025 313 493 -128
2020-07-01 07:18:16 GMT 14.945343 99.255257 34,025 313 492 0
2020-07-01 07:18:11 GMT 14.937286 99.264221 34,025 313 492 320
2020-07-01 07:18:06 GMT 14.930094 99.272263 33,975 313 491 704
2020-07-01 07:18:01 GMT 14.920784 99.282562 33,875 313 491 1152
2020-07-01 07:17:55 GMT 14.914127 99.290115 33,775 313 491 1152
2020-07-01 07:17:50 GMT 14.905701 99.299591 33,675 313 491 1152
2020-07-01 07:17:47 GMT 14.900533 99.305420 33,625 313 491 1152
2020-07-01 07:17:44 GMT 14.897095 99.309181 33,575 313 491 1216
2020-07-01 07:17:38 GMT 14.886987 99.320671 33,450 313 491 1216
2020-07-01 07:17:34 GMT 14.880795 99.327538 33,400 313 491 1216
2020-07-01 07:17:29 GMT 14.872742 99.336464 33,225 313 492 1216
2020-07-01 07:17:24 GMT 14.865005 99.345222 33,150 313 492 1216
2020-07-01 07:17:19 GMT 14.856076 99.355202 33,025 313 492 1216
2020-07-01 07:17:16 GMT 14.852305 99.359467 32,950 313 492 1344
2020-07-01 07:17:13 GMT 14.848343 99.363914 32,950 313 492 1344
2020-07-01 07:17:08 GMT 14.839969 99.373199 32,800 313 492 1344
2020-07-01 07:17:02 GMT 14.831039 99.383339 32,675 313 493 1280
2020-07-01 07:16:57 GMT 14.820374 99.395203 32,550 313 494 1216
2020-07-01 07:16:53 GMT 14.816757 99.399323 32,500 313 494 1216
2020-07-01 07:16:50 GMT 14.813341 99.403091 32,450 313 493 1216
2020-07-01 07:16:47 GMT 14.808014 99.408936 32,375 313 493 1216
2020-07-01 07:16:44 GMT 14.801517 99.416298 32,300 313 494 1216
2020-07-01 07:16:41 GMT 14.798398 99.419716 32,200 313 493 1216
2020-07-01 07:16:36 GMT 14.791694 99.427284 32,175 313 492 1088
2020-07-01 07:16:33 GMT 14.786061 99.433640 32,125 313 492 1024
2020-07-01 07:16:30 GMT 14.781779 99.438461 32,100 313 492 960
2020-07-01 07:16:27 GMT 14.775587 99.445305 32,025 313 492 832
2020-07-01 07:16:22 GMT 14.769396 99.452339 31,950 313 491 832
2020-07-01 07:16:19 GMT 14.765625 99.456482 31,925 313 490 896
2020-07-01 07:16:16 GMT 14.759766 99.462967 31,875 313 490 960
2020-07-01 07:16:12 GMT 14.752730 99.470886 31,800 313 489 832
2020-07-01 07:16:09 GMT 14.749658 99.474312 31,800 313 489 832
2020-07-01 07:16:06 GMT 14.743466 99.481201 31,725 313 488 832
2020-07-01 07:15:59 GMT 14.733690 99.492188 31,650 313 486 640
2020-07-01 07:15:55 GMT 14.727685 99.499031 31,600 313 486 768
2020-07-01 07:15:50 GMT 14.718750 99.508812 31,500 313 484 1152
2020-07-01 07:15:44 GMT 14.711718 99.516716 31,425 313 484 1216
2020-07-01 07:15:40 GMT 14.703461 99.525810 31,300 313 484 1280
2020-07-01 07:15:37 GMT 14.701429 99.528229 31,275 313 484 1280
2020-07-01 07:15:33 GMT 14.695084 99.535423 31,175 313 484 1344
2020-07-01 07:15:29 GMT 14.686478 99.544891 31,050 313 484 1280
2020-07-01 07:15:23 GMT 14.679794 99.552422 30,975 313 483 1344
2020-07-01 07:15:18 GMT 14.669998 99.563217 30,825 313 483 1472
2020-07-01 07:15:14 GMT 14.663676 99.570442 30,725 313 484 1280
2020-07-01 07:15:06 GMT 14.653015 99.582306 30,575 313 483 1088
2020-07-01 07:15:02 GMT 14.647848 99.588127 30,525 313 483 1088
2020-07-01 07:14:57 GMT 14.637560 99.599640 30,400 313 481 896
2020-07-01 07:14:53 GMT 14.632416 99.605316 30,350 313 481 1088
2020-07-01 07:14:48 GMT 14.624851 99.613853 30,250 313 480 1280
2020-07-01 07:14:45 GMT 14.621267 99.617805 30,200 313 480 1344
2020-07-01 07:14:40 GMT 14.614380 99.625542 30,075 313 480 1408
2020-07-01 07:14:35 GMT 14.605820 99.635010 30,000 313 480 1344
2020-07-01 07:14:32 GMT 14.600132 99.641518 29,850 313 480 1344
2020-07-01 07:14:26 GMT 14.592590 99.649925 29,725 313 480 1600
2020-07-01 07:14:23 GMT 14.588633 99.654236 29,650 313 480 1792
2020-07-01 07:14:19 GMT 14.582628 99.661079 29,500 313 482 2688
2020-07-01 07:14:16 GMT 14.572495 99.672234 29,225 313 484 3008
2020-07-01 07:14:08 GMT 14.565450 99.680161 29,000 313 486 2944
2020-07-01 07:14:05 GMT 14.560655 99.685654 28,850 313 489 2496
2020-07-01 07:14:01 GMT 14.553254 99.693893 28,675 313 491 2048
2020-07-01 07:13:55 GMT 14.543990 99.704155 28,475 313 492 2048
2020-07-01 07:13:50 GMT 14.536789 99.712059 28,300 313 494 2112
2020-07-01 07:13:43 GMT 14.527542 99.722519 28,125 313 495 2048
2020-07-01 07:13:40 GMT 14.520993 99.729935 27,950 313 496 2048
2020-07-01 07:13:32 GMT 14.510379 99.741791 27,725 313 497 1984
2020-07-01 07:13:29 GMT 14.504333 99.748474 27,600 313 498 2112
2020-07-01 07:13:25 GMT 14.498508 99.754990 27,475 313 499 2240
2020-07-01 07:13:22 GMT 14.495087 99.758934 27,375 313 499 2240
2020-07-01 07:13:19 GMT 14.487894 99.766991 27,225 313 501 2112
2020-07-01 07:13:12 GMT 14.478104 99.777832 27,025 313 502 1792
2020-07-01 07:13:09 GMT 14.473277 99.783134 26,925 313 502 1664
2020-07-01 07:13:06 GMT 14.469506 99.787422 26,900 313 502 1536
2020-07-01 07:13:02 GMT 14.461965 99.795853 26,750 313 501 1344
2020-07-01 07:12:57 GMT 14.452835 99.806152 26,625 313 501 1280
2020-07-01 07:12:50 GMT 14.443577 99.816284 26,525 313 501 1216
2020-07-01 07:12:46 GMT 14.433975 99.827271 26,450 313 499 1216
2020-07-01 07:12:41 GMT 14.428299 99.833427 26,325 313 499 1216
2020-07-01 07:12:34 GMT 14.415070 99.848198 26,125 313 498 1280
2020-07-01 07:12:30 GMT 14.412003 99.851608 26,100 313 496 1280
2020-07-01 07:12:25 GMT 14.404449 99.860039 26,000 313 496 1152
2020-07-01 07:12:20 GMT 14.395535 99.870155 25,900 313 495 1088
2020-07-01 07:12:15 GMT 14.388645 99.877724 25,825 313 494 1088
2020-07-01 07:12:09 GMT 14.379547 99.887840 25,700 313 493 1216
2020-07-01 07:12:04 GMT 14.372177 99.896080 25,600 313 491 1216
2020-07-01 07:11:59 GMT 14.362885 99.906403 25,475 313 491 1280
2020-07-01 07:11:54 GMT 14.356705 99.913269 25,375 313 490 1280
2020-07-01 07:11:47 GMT 14.346608 99.924606 25,250 313 489 1344
2020-07-01 07:11:43 GMT 14.340088 99.931786 25,150 313 488 1344
2020-07-01 07:11:37 GMT 14.326870 99.946579 24,950 313 486 1408
2020-07-01 07:11:34 GMT 14.324449 99.949326 24,925 313 486 1408
2020-07-01 07:11:26 GMT 14.312765 99.962189 24,750 313 485 1536
2020-07-01 07:11:23 GMT 14.308319 99.967346 24,675 313 485 1600
2020-07-01 07:11:20 GMT 14.302989 99.973175 24,550 313 484 1344
2020-07-01 07:11:17 GMT 14.298523 99.978142 24,475 313 484 1472
2020-07-01 07:11:13 GMT 14.293030 99.984344 24,400 313 484 1344
2020-07-01 07:11:06 GMT 14.282730 99.995804 24,250 313 482 1344
2020-07-01 07:11:02 GMT 14.276920 100.002182 24,125 313 482 1472
2020-07-01 07:10:59 GMT 14.270914 100.009026 24,075 313 481 1472
2020-07-01 07:10:56 GMT 14.266585 100.013702 24,000 313 480 1472
2020-07-01 07:10:51 GMT 14.259928 100.021072 23,875 313 480 1536
2020-07-01 07:10:45 GMT 14.250458 100.031509 23,725 313 479 1600
2020-07-01 07:10:41 GMT 14.243958 100.038902 23,600 313 478 1536
2020-07-01 07:10:35 GMT 14.234848 100.048889 23,450 313 476 1408
2020-07-01 07:10:30 GMT 14.226929 100.057465 23,350 313 476 1472
2020-07-01 07:10:24 GMT 14.218869 100.066559 23,200 313 475 1664
2020-07-01 07:10:21 GMT 14.208389 100.078064 23,075 313 474 1856
2020-07-01 07:10:17 GMT 14.208389 100.078064 23,000 313 474 1600
2020-07-01 07:10:13 GMT 14.202064 100.085114 22,900 313 474 1344
2020-07-01 07:10:09 GMT 14.195206 100.092644 22,825 313 471 576
2020-07-01 07:10:06 GMT 14.191589 100.096581 22,800 313 469 448
2020-07-01 07:10:03 GMT 14.187819 100.100868 22,775 313 468 512
2020-07-01 07:10:00 GMT 14.182465 100.106697 22,750 313 466 576
2020-07-01 07:09:56 GMT 14.177490 100.112206 22,700 313 463 1152
2020-07-01 07:09:53 GMT 14.172549 100.117683 22,625 313 462 1344
2020-07-01 07:09:49 GMT 14.161697 100.129723 22,525 313 462 1664
2020-07-01 07:09:46 GMT 14.161697 100.129723 22,425 313 461 1792
2020-07-01 07:09:42 GMT 14.156387 100.135551 22,325 313 460 1792
2020-07-01 07:09:37 GMT 14.150024 100.142609 22,200 313 460 1728
2020-07-01 07:09:31 GMT 14.140778 100.152885 22,025 313 459 1600
2020-07-01 07:09:27 GMT 14.135447 100.159081 21,900 312 458 1600
2020-07-01 07:09:24 GMT 14.131165 100.163872 21,850 312 457 1600
2020-07-01 07:09:21 GMT 14.125858 100.170059 21,750 312 457 1728
2020-07-01 07:09:17 GMT 14.121552 100.175041 21,600 312 456 1920
2020-07-01 07:09:14 GMT 14.116562 100.180870 21,525 312 455 1984
2020-07-01 07:09:11 GMT 14.111572 100.186691 21,400 312 455 1856
2020-07-01 07:09:08 GMT 14.107283 100.191505 21,325 312 454 1728
2020-07-01 07:09:03 GMT 14.101456 100.198395 21,225 312 454 1536
2020-07-01 07:08:57 GMT 14.093411 100.207840 21,075 312 452 1472
2020-07-01 07:08:53 GMT 14.084985 100.217430 20,925 312 450 1536
2020-07-01 07:08:47 GMT 14.078613 100.224670 20,800 312 449 1664
2020-07-01 07:08:43 GMT 14.073812 100.230148 20,700 312 448 1728
2020-07-01 07:08:39 GMT 14.067109 100.237717 20,550 312 447 1728
2020-07-01 07:08:36 GMT 14.064362 100.240944 20,500 312 446 1728
2020-07-01 07:08:32 GMT 14.059428 100.246628 20,400 312 445 1728
2020-07-01 07:08:28 GMT 14.052352 100.254868 20,250 312 444 1728
2020-07-01 07:08:20 GMT 14.040341 100.268745 20,000 312 442 1856
2020-07-01 07:08:17 GMT 14.038284 100.270844 19,950 312 441 1856
2020-07-01 07:08:14 GMT 14.034848 100.274963 19,875 312 441 1920
2020-07-01 07:08:11 GMT 14.030228 100.280266 19,750 312 439 1920
2020-07-01 07:08:07 GMT 14.023178 100.288315 19,650 312 439 1856
2020-07-01 07:08:04 GMT 14.020603 100.291252 19,525 312 439 1792
2020-07-01 07:08:00 GMT 14.015442 100.297081 19,425 312 437 1728
2020-07-01 07:07:55 GMT 14.007242 100.306717 19,250 312 435 1792
2020-07-01 07:07:49 GMT 14.000519 100.314407 19,100 312 434 1856
2020-07-01 07:07:46 GMT 13.995026 100.320610 18,950 312 433 1984
2020-07-01 07:07:41 GMT 13.983035 100.334518 18,750 312 432 2112
2020-07-01 07:07:37 GMT 13.983035 100.334518 18,650 312 431 2112
2020-07-01 07:07:33 GMT 13.978043 100.340363 18,525 312 431 2048
2020-07-01 07:07:29 GMT 13.973740 100.345146 18,400 312 430 1920
2020-07-01 07:07:26 GMT 13.969116 100.350822 18,250 312 428 1920
2020-07-01 07:07:23 GMT 13.966183 100.354080 18,225 312 428 1984
2020-07-01 07:07:19 GMT 13.960364 100.360924 18,075 312 428 2048
2020-07-01 07:07:15 GMT 13.954880 100.367302 17,925 312 426 2112
2020-07-01 07:07:12 GMT 13.951767 100.370903 17,850 312 426 2176
2020-07-01 07:07:08 GMT 13.946457 100.377106 17,725 312 425 2112
2020-07-01 07:07:05 GMT 13.942841 100.381371 17,525 312 423 1792
2020-07-01 07:07:02 GMT 13.938217 100.386719 17,500 312 423 1792
2020-07-01 07:06:57 GMT 13.931854 100.393921 17,350 312 422 1728
2020-07-01 07:06:52 GMT 13.924845 100.401978 17,175 311 419 1984
2020-07-01 07:06:49 GMT 13.920376 100.407471 17,050 310 418 2112
2020-07-01 07:06:41 GMT 13.910751 100.419487 16,750 309 417 2304
2020-07-01 07:06:36 GMT 13.906128 100.425835 16,600 307 417 2368
2020-07-01 07:06:32 GMT 13.901459 100.432182 16,300 306 415 2816
2020-07-01 07:06:29 GMT 13.898392 100.436821 16,300 306 415 2816
2020-07-01 07:06:25 GMT 13.893906 100.443169 16,175 305 415 3008
2020-07-01 07:06:21 GMT 13.888953 100.450745 15,900 304 414 3136
2020-07-01 07:06:18 GMT 13.884979 100.457092 15,650 303 413 3200
2020-07-01 07:06:15 GMT 13.882919 100.460358 15,550 302 413 3264
2020-07-01 07:06:09 GMT 13.872660 100.478210 15,100 301 409 3200
2020-07-01 07:06:04 GMT 13.872660 100.478210 15,000 301 409 3136
2020-07-01 07:06:00 GMT 13.868005 100.486259 14,650 301 406 2880
2020-07-01 07:05:57 GMT 13.864380 100.492607 14,575 301 406 2752
2020-07-01 07:05:54 GMT 13.862698 100.495506 14,500 301 405 2688
2020-07-01 07:05:49 GMT 13.857880 100.503784 14,300 301 402 2496
2020-07-01 07:05:46 GMT 13.854598 100.509438 14,200 301 400 2432
2020-07-01 07:05:43 GMT 13.852363 100.513191 14,075 301 398 2176
2020-07-01 07:05:39 GMT 13.847580 100.521301 13,900 301 393 1920
2020-07-01 07:05:35 GMT 13.845016 100.525894 13,800 301 390 1856
2020-07-01 07:05:32 GMT 13.842261 100.530540 13,725 301 386 1792
2020-07-01 07:05:28 GMT 13.837967 100.537926 13,550 301 382 1664
2020-07-01 07:05:25 GMT 13.835037 100.542755 13,525 302 379 1600
2020-07-01 07:05:22 GMT 13.832625 100.546684 13,425 304 375 1600
2020-07-01 07:05:18 GMT 13.827644 100.553574 13,300 310 369 1664
2020-07-01 07:05:14 GMT 13.824234 100.557480 13,225 314 366 1600
2020-07-01 07:05:11 GMT 13.820435 100.561272 13,125 318 364 1600
2020-07-01 07:05:07 GMT 13.814621 100.566101 13,000 325 359 1664
2020-07-01 07:05:04 GMT 13.809631 100.569366 12,900 330 356 1728
2020-07-01 07:05:01 GMT 13.806556 100.571259 12,850 333 354 1728
2020-07-01 07:04:57 GMT 13.799011 100.574486 12,700 341 349 1728
2020-07-01 07:04:53 GMT 13.793149 100.576363 12,600 347 346 1664
2020-07-01 07:04:50 GMT 13.789890 100.577087 12,550 351 344 1600
2020-07-01 07:04:47 GMT 13.783559 100.577759 12,425 357 340 1536
2020-07-01 07:04:44 GMT 13.779276 100.577904 12,375 0 338 1344
2020-07-01 07:04:40 GMT 13.773926 100.577942 12,275 1 335 1344
2020-07-01 07:04:36 GMT 13.766707 100.577759 12,175 1 330 1344
2020-07-01 07:04:32 GMT 13.760376 100.577606 12,075 1 326 1344
2020-07-01 07:04:29 GMT 13.757263 100.577606 12,050 1 324 1344
2020-07-01 07:04:24 GMT 13.750076 100.577415 11,925 1 319 1472
2020-07-01 07:04:21 GMT 13.744766 100.577232 11,825 1 316 1536
2020-07-01 07:04:18 GMT 13.741333 100.577232 11,775 1 314 1664
2020-07-01 07:04:15 GMT 13.734970 100.577087 11,625 1 310 1984
2020-07-01 07:04:11 GMT 13.727417 100.576897 11,575 1 309 2112
2020-07-01 07:04:08 GMT 13.726364 100.576897 11,400 0 307 2432
2020-07-01 07:04:04 GMT 13.719177 100.576897 11,175 1 305 2816
2020-07-01 07:04:01 GMT 13.716431 100.576752 11,100 1 305 2880
2020-07-01 07:03:57 GMT 13.711624 100.576706 10,925 1 305 2816
2020-07-01 07:03:53 GMT 13.705118 100.576553 10,750 1 304 2496
2020-07-01 07:03:50 GMT 13.701508 100.576378 10,675 1 304 2368
2020-07-01 07:03:47 GMT 13.696506 100.576363 10,500 1 304 2112
2020-07-01 07:03:42 GMT 13.690315 100.576218 10,375 1 304 1600
2020-07-01 07:03:39 GMT 13.685892 100.576027 10,325 1 304 1344
2020-07-01 07:03:36 GMT 13.681046 100.576050 10,250 1 303 768
2020-07-01 07:03:33 GMT 13.675415 100.575859 10,200 1 302 384
2020-07-01 07:03:27 GMT 13.667679 100.575523 10,150 1 300 640
2020-07-01 07:03:23 GMT 13.658939 100.575356 10,075 1 299 896
2020-07-01 07:03:20 GMT 13.658939 100.575356 10,050 1 299 1024
2020-07-01 07:03:17 GMT 13.655319 100.575195 10,025 1 298 1216
2020-07-01 07:03:14 GMT 13.651520 100.575195 9,950 1 298 1408
2020-07-01 07:03:10 GMT 13.644836 100.574860 9,825 2 296 1728
2020-07-01 07:03:04 GMT 13.637478 100.574486 9,650 2 293 2176
2020-07-01 07:03:00 GMT 13.630402 100.574341 9,450 2 292 2432
2020-07-01 07:02:56 GMT 13.625468 100.574005 9,300 2 291 2432
2020-07-01 07:02:52 GMT 13.620114 100.573814 9,125 2 290 2304
2020-07-01 07:02:49 GMT 13.616343 100.573616 9,025 2 290 2304
2020-07-01 07:02:44 GMT 13.609634 100.573296 8,775 2 288 2112
2020-07-01 07:02:41 GMT 13.604828 100.572968 8,675 3 286 2112
2020-07-01 07:02:38 GMT 13.602424 100.572945 8,675 3 286 2112
2020-07-01 07:02:32 GMT 13.594208 100.572449 8,400 2 283 2240
2020-07-01 07:02:28 GMT 13.588691 100.572266 8,250 2 282 2432
2020-07-01 07:02:21 GMT 13.578415 100.572113 7,925 1 280 2560
2020-07-01 07:02:18 GMT 13.575145 100.571930 7,800 1 280 2624
2020-07-01 07:02:11 GMT 13.566719 100.571930 7,425 359 278 2304
2020-07-01 07:02:08 GMT 13.561598 100.571930 7,375 358 277 2176
2020-07-01 07:02:00 GMT 13.552986 100.572945 7,150 349 272 2240
2020-07-01 07:01:56 GMT 13.548191 100.574486 6,975 341 269 2432
2020-07-01 07:01:50 GMT 13.541336 100.577942 6,750 329 264 2240
2020-07-01 07:01:46 GMT 13.537399 100.580688 6,600 321 260 2176
2020-07-01 07:01:39 GMT 13.531219 100.587555 6,375 302 253 1536
2020-07-01 07:01:36 GMT 13.529337 100.590630 6,300 299 252 1408
2020-07-01 07:01:29 GMT 13.526730 100.597664 6,200 287 249 320
2020-07-01 07:01:26 GMT 13.525360 100.602470 6,200 286 246 -64
2020-07-01 07:01:18 GMT 13.523285 100.610382 6,200 286 239 0
2020-07-01 07:01:14 GMT 13.522261 100.614143 6,200 285 235 64
2020-07-01 07:01:08 GMT 13.520554 100.620842 6,200 285 231 -64
2020-07-01 07:01:05 GMT 13.519375 100.625656 6,200 285 231 -64
2020-07-01 07:00:57 GMT 13.517653 100.632835 6,175 285 230 64
2020-07-01 07:00:54 GMT 13.516628 100.636787 6,175 285 228 128
2020-07-01 07:00:46 GMT 13.515244 100.644707 6,125 275 227 192
2020-07-01 07:00:43 GMT 13.515060 100.648117 6,125 270 227 320
2020-07-01 07:00:37 GMT 13.515747 100.654510 6,050 261 225 768
2020-07-01 07:00:33 GMT 13.516617 100.659103 5,975 255 227 1088
2020-07-01 07:00:27 GMT 13.518863 100.665459 5,850 245 237 1728
2020-07-01 07:00:24 GMT 13.520554 100.668907 5,750 241 241 1856
2020-07-01 07:00:21 GMT 13.521237 100.670471 5,700 239 243 1984
2020-07-01 07:00:15 GMT 13.525726 100.676109 5,450 225 255 2816
2020-07-01 07:00:12 GMT 13.529297 100.679375 5,300 218 259 2816
2020-07-01 07:00:04 GMT 13.535843 100.683685 5,050 209 260 1920
2020-07-01 07:00:01 GMT 13.540146 100.685905 4,925 208 257 1472
2020-07-01 06:59:55 GMT 13.546829 100.689507 4,775 208 250 1344
2020-07-01 06:59:51 GMT 13.550949 100.691734 4,700 208 245 1216
2020-07-01 06:59:44 GMT 13.557455 100.695190 4,550 207 237 1664
2020-07-01 06:59:40 GMT 13.561412 100.697067 4,425 207 233 2112
2020-07-01 06:59:34 GMT 13.567749 100.700302 4,200 204 231 1920
2020-07-01 06:59:30 GMT 13.571732 100.702057 4,075 201 229 1664
2020-07-01 06:59:23 GMT 13.578776 100.704247 3,925 198 225 1152
2020-07-01 06:59:18 GMT 13.582169 100.705467 3,875 200 220 896
2020-07-01 06:59:11 GMT 13.589203 100.709404 3,750 218 204 832
2020-07-01 06:59:08 GMT 13.591095 100.710960 3,725 221 200 896
2020-07-01 06:59:02 GMT 13.595907 100.715233 3,600 218 190 640
2020-07-01 06:58:58 GMT 13.598328 100.716972 3,575 211 187 448
2020-07-01 06:58:49 GMT 13.604691 100.719391 3,450 193 180 1280
2020-07-01 06:58:46 GMT 13.607079 100.719910 3,400 192 178 1408
2020-07-01 06:58:39 GMT 13.614807 100.721596 3,150 194 174 1536
2020-07-01 06:58:36 GMT 13.615677 100.721802 3,125 195 173 1472
2020-07-01 06:58:26 GMT 13.623230 100.724174 2,800 197 170 2240
2020-07-01 06:58:22 GMT 13.625977 100.724884 2,675 196 169 1856
2020-07-01 06:58:14 GMT 13.632294 100.726585 2,475 195 168 1792
2020-07-01 06:58:08 GMT 13.637106 100.727814 2,200 194 167 1920
2020-07-01 06:58:05 GMT 13.639023 100.728294 2,125 193 167 2496
2020-07-01 06:57:57 GMT 13.645203 100.729668 1,775 194 169 2112
2020-07-01 06:57:54 GMT 13.649139 100.730705 1,625 195 168 2048
2020-07-01 06:57:45 GMT 13.655136 100.732269 1,325 196 164 2176
2020-07-01 06:57:41 GMT 13.658427 100.733307 1,150 197 161 2560
2020-07-01 06:57:36 GMT 13.660309 100.733788 1,025 197 160 2816
2020-07-01 06:57:32 GMT 13.663547 100.734848 825 197 161 2944
2020-07-01 06:57:27 GMT 13.667862 100.736008 550 196 165 2944
2020-07-01 06:57:14 GMT 13.676954 100.738449 0 194 160
2020-07-01 06:57:03 GMT 13.683821 100.740173 0 194 120
2020-07-01 06:56:53 GMT 13.688278 100.741371 0 194 78
2020-07-01 06:56:42 GMT 13.690850 100.742050 0 194 28
2020-07-01 06:56:14 GMT 13.691368 100.742058 0 16 3
2020-07-01 06:56:09 GMT 13.691540 100.742058 0 16 6
2020-07-01 06:55:59 GMT 13.691886 100.742050 0 16 11
2020-07-01 06:55:48 GMT 13.692398 100.742569 0 16 15
2020-07-01 06:55:10 GMT 13.692398 100.743607 0 16 5
2020-07-01 06:55:03 GMT 13.692224 100.743774 0 16 6
2020-07-01 06:54:55 GMT 13.692061 100.743774 0 16 7
2020-07-01 06:54:45 GMT 13.691711 100.743774 0 16 10
2020-07-01 06:54:34 GMT 13.691025 100.743423 0 16 16
2020-07-01 06:54:19 GMT 13.689823 100.743088 0 16 20
2020-07-01 06:53:58 GMT 13.687935 100.742569 0 16 22
2020-07-01 06:53:50 GMT 13.687248 100.742401 0 16 23
2020-07-01 06:53:39 GMT 13.686044 100.742050 0 16 22
2020-07-01 06:53:16 GMT 13.683987 100.741371 0 19
2020-07-01 06:53:07 GMT 13.683297 100.741196 0 18
2020-07-01 06:52:59 GMT 13.682610 100.741028 0 17
2020-07-01 06:52:49 GMT 13.681924 100.740860 0 15
2020-07-01 06:49:16 GMT 13.678665 100.742569 0 0
2020-07-01 06:49:05 GMT 13.678665 100.742401 0 0
2020-07-01 06:48:34 GMT 13.678491 100.742401 0 0
2020-07-01 06:46:15 GMT 13.678491 100.742401 0 0
2020-07-01 06:45:58 GMT 13.678493 100.742401 0 2
2020-07-01 06:45:53 GMT 13.678491 100.742401 0 3
2020-07-01 06:45:44 GMT 13.678665 100.742401 0 3
2020-07-01 06:45:34 GMT 13.678665 100.742569 0 3
2020-07-01 06:45:23 GMT 13.678665 100.742744 0 3
2020-07-01 06:45:11 GMT 13.678491 100.742737 0 3
2020-07-01 06:45:02 GMT 13.678491 100.742920 0 3
2020-07-01 06:44:51 GMT 13.678493 100.743088 0 3
2020-07-01 06:44:39 GMT 13.678493 100.743256 0 3
2020-07-01 06:44:15 GMT 13.678328 100.743423 0 2
2020-07-01 06:44:08 GMT 13.678322 100.743431 0 1
2020-07-01 06:43:58 GMT 13.678322 100.743599 0 0

Making use of Plane Finder data

You are free to use the raw flight data, aircraft information and images provided in this report for your own purposes provided the data is correctly attributed to Plane Finder. We ask that you please credit Plane Finder and link to planefinder.net in close proximity to the content.

Optionally one of the following logos (no smaller then 150x24px) can be used and must link to planefinder.net

Embedding the Plane Finder map

You are welcome to embed the Plane Finder playback map on your website to offer visitors a more interactive experience. We suggest using the following HTML code:

<iframe src="//planefinder.net/data/report/UM462-Z-WPF-7700-squawk-2020-07-01/map" width="800" height="600" seamless="seamless"></iframe>

Where our data comes from

Plane Finder has a global network of data feeds and antenna radars that receive data broadcast directly from aircraft. The primary technologies used are ADS-B and MLAT. We also show feeds from the FAA and a FLARM glider feed.

Click here to find out more about the Plane Finder network.

How we collect our data